• Join FlightAware (Why Join?)
  • Login
  • US Flag 
07:19AM EST


 

Airport Tracker/Info


-or-


 

Live Flight TrackerFlight Track Log ✈ SWA1586 ✈ 31-May-2013 ✈ KSLC - KDEN

Flight Track Log - Related Links

Times and Time Zones

All times are in EDT time to prevent confusion due to time zone crossing. See the SWA1586 flight status page for this flight to view local times or setup timezone preferences in your user account.

Time Position Orientation Groundspeed Altitude Reporting Facility
EDT Latitude Longitude Course Direction KTS MPH feet Rate Location/Type
09:54PM 40.8100 -111.9639 352° North 176 203 5,000  Level Salt Lake Center
09:55PM 40.8592 -111.9728 352° North 196 226 6,600 1,800 Climbing Salt Lake Center
09:56PM 40.8986 -111.9761 356° North 227 261 7,900 2,640 Climbing Salt Lake Center
09:56PM 40.9319 -111.9819 352° North 250 288 9,600 3,420 Climbing Salt Lake Center
09:57PM 40.9708 -111.9850 357° North 255 293 11,400 3,000 Climbing Salt Lake Center
09:58PM 41.0333 -111.9442 26° Northeast 283 326 14,400 2,280 Climbing Salt Lake Center
09:59PM 41.0064 -111.8250 107° East 382 440 16,100 2,100 Climbing Salt Lake Center
10:00PM 40.9858 -111.6458 99° East 422 486 18,800 2,700 Climbing Salt Lake Center
10:01PM 40.9717 -111.4861 97° East 438 504 21,600 2,460 Climbing Salt Lake Center
10:02PM 40.9569 -111.3181 97° East 460 529 23,900 2,160 Climbing Salt Lake Center
10:03PM 40.9403 -111.1458 97° East 471 542 26,100 2,040 Climbing Salt Lake Center
10:04PM 40.9239 -110.9689 97° East 484 557 28,100 1,740 Climbing Salt Lake Center
10:05PM 40.9067 -110.7875 97° East 498 573 29,700 1,560 Climbing Salt Lake Center
10:06PM 40.8894 -110.6036 97° East 506 582 31,400 1,680 Climbing Salt Lake Center
10:07PM 40.8706 -110.4125 97° East 512 589 33,200 1,860 Climbing Salt Lake Center
10:08PM 40.8497 -110.2064 98° East 509 586 35,300 1,920 Climbing Salt Lake Center
10:09PM 40.8292 -110.0117 98° East 501 577 37,200 1,320 Climbing Salt Lake Center
10:10PM 40.8117 -109.8361 97° East 501 577 38,000 840 Climbing Salt Lake Center
10:11PM 40.7936 -109.6672 98° East 489 563 39,000  Climbing Salt Lake Center
10:12PM 40.7739 -109.4753 98° East 475 547 38,000 -960 Descending Salt Lake Center
10:13PM 40.7558 -109.3086 98° East 478 550 37,100 -540 Descending Salt Lake Center
10:14PM 40.7375 -109.1389 98° East 481 554 37,000 -60 Descending Salt Lake Center
10:15PM 40.7192 -108.9681 98° East 485 558 37,000  Level Denver Center
10:16PM 40.6997 -108.8000 99° East 484 557 37,000  Level Denver Center
10:17PM 40.6806 -108.6319 98° East 483 556 37,000  Level Denver Center
10:18PM 40.6581 -108.4372 99° East 481 554 37,000  Level Denver Center
10:19PM 40.6386 -108.2683 99° East 484 557 37,000  Level Denver Center
10:20PM 40.6236 -108.0994 97° East 483 556 37,000  Level Denver Center
10:21PM 40.6069 -107.9033 96° East 483 556 37,000  Level Denver Center
10:22PM 40.5914 -107.7347 97° East 485 558 37,000 -420 Level Denver Center
10:23PM 40.5739 -107.5444 97° East 472 543 36,200 -840 Descending Denver Center
10:24PM 40.5564 -107.3614 97° East 455 524 35,100 -540 Descending Denver Center
10:25PM 40.5406 -107.1986 97° East 450 518 35,000 -360 Descending Denver Center
10:26PM 40.5244 -107.0372 97° East 447 514 34,400 -1,020 Descending Denver Center
10:27PM 40.5089 -106.8800 97° East 437 503 33,000 -720 Descending Denver Center
10:28PM 40.4936 -106.7231 97° East 433 498 33,000  Level Denver Center
10:30PM 40.4742 -106.5308 98° East 439 505 33,000  Level Denver Center
10:31PM 40.4564 -106.3686 98° East 445 512 33,000  Level Denver Center
10:32PM 40.4422 -106.2167 97° East 440 506 33,000 -1,560 Level Denver Center
10:33PM 40.4247 -106.0500 98° East 447 514 29,900 -2,880 Descending Denver Center
10:34PM 40.4069 -105.8892 98° East 446 513 27,200 -2,640 Descending Denver Center
10:35PM 40.3889 -105.7300 98° East 443 510 24,500 -2,400 Descending Denver Center
10:36PM 40.3750 -105.6022 98° East 443 510 22,400 -1,620 Descending Denver Center
10:37PM 40.3425 -105.4131 103° East 396 456 21,300 -1,560 Descending Denver Center
10:38PM 40.2722 -105.3019 130° Southeast 371 427 19,300 -1,860 Descending Denver Center
10:39PM 40.2064 -105.2003 130° Southeast 365 420 17,500 -1,140 Descending Denver Center
10:40PM 40.1425 -105.0986 129° Southeast 353 406 17,000 -840 Descending Denver Center
10:41PM 40.0772 -105.0000 131° Southeast 343 395 15,900 -1,320 Descending Denver Center
10:42PM 40.0178 -104.9078 130° Southeast 334 384 14,400 -1,500 Descending Denver Center
10:43PM 39.9594 -104.8189 131° Southeast 325 374 12,900 -1,440 Descending Denver Center
10:44PM 39.8753 -104.8067 174° South 312 359 11,500 -960 Descending Denver Center
10:45PM 39.7914 -104.8086 181° South 283 326 11,000 -480 Descending Denver Center
10:46PM 39.7289 -104.8056 178° South 272 313 10,600 -1,200 Descending Denver Center
10:47PM 39.7186 -104.7028 97° East 253 291 8,600 -1,620 Descending Denver Center
10:48PM 39.7494 -104.6558 49° Northeast 179 206 7,400 -1,260 Descending Denver Center
10:49PM 39.7881 -104.6606 355° North 142 163 6,100 -1,020 Descending Denver Center
10:50PM 39.8297 -104.6606 360° North 139 160 5,400 -720 Descending Denver Center
10:52PM 39.8500 -104.6667 North  Level FlightAware Approximate
10:59PM 39.8617 -104.6732 North  Level Estimated
11:00PM 39.8617 -104.6732 North  Level Estimated